Gambrills, MD (21054)

2:00 PM EST on February 25, 2017 (GMT -0500)
Patuxent Run | | Change Station
Active Advisory: Severe Thunderstorm Watch

Elev 143 ft 38.98 °N, 76.69 °W | Updated 37 seconds ago

Mostly Cloudy
Mostly Cloudy
70.1 °F
Feels Like 74 °F
N
1.0
Wind Variable Wind from South

Today
High -- | Low -- °F
--% Chance of Precip.
Yesterday
High -- | Low -- °F
Precip. -- in
Pressure 29.49 in
Visibility 10.0 miles
Clouds Scattered Clouds 6000 ft
Mostly Cloudy 7500 ft
Mostly Cloudy 9000 ft
Heat Index 74 °F
Dew Point 59.4 °F
Humidity 69%
Rainfall 0.00 in
Snow Depth Not available.
6:44 AM 5:55 PM
Waning Crescent, 1% visible
METAR KFME 251839Z AUTO 15009G17KT 110V180 10SM SCT060 BKN075 BKN090 23/13 A2949 RMK AO1
Pressure 29.49 in
Visibility 10.0 miles
Clouds Scattered Clouds 6000 ft
Mostly Cloudy 7500 ft
Mostly Cloudy 9000 ft
Heat Index 74 °F
Dew Point 59.4 °F
Humidity 69%
Rainfall 0.00 in
Snow Depth Not available.
6:44 AM 5:55 PM
Waning Crescent, 1% visible
METAR KFME 251839Z AUTO 15009G17KT 110V180 10SM SCT060 BKN075 BKN090 23/13 A2949 RMK AO1

Get Your Daily Forecast Email!

Thanks for signing up!

Be on the lookout for a verification email in your inbox.

You'll start receiving the daily forecast at 8 AM.

×

10-Day Weather Forecast

Almanac

Astronomy

Feb. 25, 2017 Rise Set
Actual Time
Civil Twilight
Nautical Twilight
Astronomical Twilight
Moon
Length of Visible Light
Length of Day
Tomorrow will be .
, % of the Moon is Illuminated

Today's Extremes

State Highs State Lows

Community

WunderPhotos

Upload Photos

1,962,540 photos uploaded!

WunderBlog® & News

Nearby

Air Quality

  Air Quality AQ Index Pollutant
Not available.

Snow Depth

Station Depth Elevation

Earthquake Activity

City Distance Mag. Time & Date
Minimum magnitude displayed is 2.5.

Coastal Water Temperatures

Place Temperature

Stations

Nearby Weather Stations

Station Location Temp. Windchill Dew Point Humidity Wind Precip. Elev Updated Type
                   

Watches & Warnings

Severe Thunderstorm Watch
Issued: 1:43 PM EST Feb. 25, 2017 – National Weather Service

Severe Thunderstorm Watch 39 remains in effect until 800 PM EST

MD
. Maryland counties included are

Anne Arundel Baltimore Calvert
Caroline Carroll Cecil
Charles Dorchester Frederick
Harford Howard Kent
Montgomery Prince Georges Queen Anne's
St. Marys Talbot Washington




Maryland independent cities included are

Baltimore City